Time;durP1;ratioP1;P1;durP2;ratioP2;P2;SDS_P1;SDS_P2;PMS_P1;PMS_P2;Temp;Humidity;BMP_temperature;BMP_pressure;BME280_temperature;BME280_humidity;BME280_pressure;Samples;Min_cycle;Max_cycle;Signal;HPM_P1;HPM_P2
2022/03/27 00:01:34;;;;;;;4.10;3.38;;;6.40;99.90;;;;;;5081937;28;20393;-50
2022/03/27 00:04:01;;;;;;;4.50;3.63;;;6.40;99.90;;;;;;5082735;28;20062;-55
2022/03/27 00:06:30;;;;;;;4.93;3.33;;;6.20;99.90;;;;;;5081168;28;20052;-55
2022/03/27 00:08:56;;;;;;;4.25;3.03;;;6.20;99.90;;;;;;5083538;28;20105;-54
2022/03/27 00:11:25;;;;;;;4.70;3.40;;;6.10;99.90;;;;;;5083833;28;20482;-54
2022/03/27 00:13:59;;;;;;;4.38;3.28;;;6.10;99.90;;;;;;5064174;28;20159;-49
2022/03/27 00:16:25;;;;;;;5.18;3.63;;;6.10;99.90;;;;;;5081356;28;20048;-53
2022/03/27 00:18:53;;;;;;;6.97;4.38;;;6.10;99.90;;;;;;5081457;28;20406;-58
2022/03/27 00:21:22;;;;;;;5.72;4.38;;;6.10;99.90;;;;;;5076484;28;20095;-54
2022/03/27 00:23:49;;;;;;;6.72;4.10;;;6.20;99.90;;;;;;5082731;28;20672;-54
2022/03/27 00:26:15;;;;;;;6.00;4.07;;;6.20;99.90;;;;;;5082884;28;20297;-53
2022/03/27 00:28:42;;;;;;;5.38;3.97;;;6.30;99.90;;;;;;5082812;28;20044;-54
2022/03/27 00:31:10;;;;;;;7.28;4.50;;;6.30;99.90;;;;;;5077236;28;20105;-51
2022/03/27 00:33:38;;;;;;;5.70;3.90;;;6.40;99.90;;;;;;5082881;28;20074;-53
2022/03/27 00:36:05;;;;;;;5.07;4.10;;;6.40;99.90;;;;;;5082585;28;20049;-54
2022/03/27 00:38:32;;;;;;;6.50;4.72;;;6.50;99.90;;;;;;5073911;28;20562;-54
2022/03/27 00:40:59;;;;;;;6.53;5.15;;;6.40;99.90;;;;;;5083656;28;20052;-52
2022/03/27 00:43:27;;;;;;;5.97;4.10;;;6.30;99.90;;;;;;5074166;28;20502;-55
2022/03/27 00:45:53;;;;;;;7.15;4.88;;;6.40;99.90;;;;;;5071772;28;20110;-53
2022/03/27 00:48:20;;;;;;;11.35;4.57;;;6.40;99.90;;;;;;5076139;28;20052;-54
2022/03/27 00:50:48;;;;;;;6.20;4.75;;;6.40;99.90;;;;;;5061844;28;20102;-54
2022/03/27 00:53:14;;;;;;;10.02;4.93;;;6.40;99.90;;;;;;5071339;28;20991;-55
2022/03/27 00:55:40;;;;;;;8.70;4.82;;;6.40;99.90;;;;;;5082368;28;20154;-54
2022/03/27 00:58:06;;;;;;;8.48;5.30;;;6.40;99.90;;;;;;5078924;28;20040;-54
2022/03/27 01:00:38;;;;;;;8.63;4.78;;;6.40;99.90;;;;;;5086472;28;20052;-55
2022/03/27 01:03:06;;;;;;;8.10;5.78;;;6.50;99.90;;;;;;5083641;28;20449;-55
2022/03/27 01:05:32;;;;;;;8.77;5.30;;;6.50;99.90;;;;;;5082965;28;20044;-59
2022/03/27 01:08:04;;;;;;;7.72;5.63;;;6.50;99.90;;;;;;5081602;28;20050;-45
2022/03/27 01:10:30;;;;;;;8.27;5.38;;;6.50;99.90;;;;;;5073962;28;20052;-54
2022/03/27 01:12:56;;;;;;;9.85;5.95;;;6.50;99.90;;;;;;5082454;28;20105;-53
2022/03/27 01:15:29;;;;;;;9.45;6.38;;;6.60;99.90;;;;;;5083804;28;20048;-53
2022/03/27 01:17:55;;;;;;;;;;;6.60;99.90;;;;;;5071999;28;20044;-55
2022/03/27 01:20:32;;;;;;;8.55;6.45;;;6.60;99.90;;;;;;5072761;28;19931;-55
2022/03/27 01:22:59;;;;;;;6.75;5.63;;;6.60;99.90;;;;;;5074370;28;20502;-54
2022/03/27 01:25:25;;;;;;;8.70;6.50;;;6.60;99.90;;;;;;5083112;28;20056;-54
2022/03/27 01:27:51;;;;;;;9.15;6.07;;;6.60;99.90;;;;;;5070491;28;20596;-55
2022/03/27 01:30:16;;;;;;;8.82;6.05;;;6.60;99.90;;;;;;5071789;28;20131;-51
2022/03/27 01:32:42;;;;;;;8.98;5.70;;;6.50;99.90;;;;;;5079916;28;20346;-54
2022/03/27 01:35:10;;;;;;;10.57;6.28;;;6.50;99.90;;;;;;5083345;28;20040;-52
2022/03/27 01:37:41;;;;;;;9.07;6.50;;;6.60;99.90;;;;;;5075722;28;20046;-52
2022/03/27 01:40:07;;;;;;;11.95;6.55;;;6.60;99.90;;;;;;5082817;28;20051;-55
2022/03/27 01:42:33;;;;;;;10.02;6.45;;;6.60;99.90;;;;;;5080006;28;20097;-52
2022/03/27 01:44:58;;;;;;;12.02;7.05;;;6.60;99.90;;;;;;5076979;28;20060;-54
2022/03/27 01:47:24;;;;;;;9.27;6.00;;;6.60;99.90;;;;;;5077864;28;20040;-54
2022/03/27 01:49:50;;;;;;;8.10;6.32;;;6.60;99.90;;;;;;5055412;28;20064;-54
2022/03/27 01:52:16;;;;;;;11.38;6.78;;;6.60;99.90;;;;;;5067807;28;20090;-55
2022/03/27 01:54:41;;;;;;;11.05;6.90;;;6.60;99.90;;;;;;5048980;28;20479;-54
2022/03/27 01:57:10;;;;;;;12.70;7.53;;;6.60;99.90;;;;;;5077400;28;20071;-53
2022/03/27 01:59:36;;;;;;;11.18;7.43;;;6.60;99.90;;;;;;5083929;28;20059;-54
2022/03/27 02:02:06;;;;;;;11.35;7.00;;;6.60;99.90;;;;;;5081120;28;20069;-54
2022/03/27 02:04:32;;;;;;;11.50;7.00;;;6.60;99.90;;;;;;5074137;28;20094;-53
2022/03/27 02:06:58;;;;;;;10.68;7.38;;;6.50;99.90;;;;;;5076118;28;20174;-53
2022/03/27 02:09:24;;;;;;;15.38;7.47;;;6.50;99.90;;;;;;5075120;28;20123;-52
2022/03/27 02:11:50;;;;;;;10.52;7.22;;;6.50;99.90;;;;;;5072664;28;20144;-54
2022/03/27 02:14:21;;;;;;;14.00;7.50;;;6.50;99.90;;;;;;5083743;28;20487;-55
2022/03/27 02:16:47;;;;;;;16.40;8.32;;;6.50;99.90;;;;;;5086989;28;20533;-55
2022/03/27 02:19:13;;;;;;;14.40;7.45;;;6.50;99.90;;;;;;5083047;28;20131;-53
2022/03/27 02:21:40;;;;;;;11.43;7.22;;;6.60;99.90;;;;;;5081481;28;20056;-51
2022/03/27 02:24:06;;;;;;;17.35;9.20;;;6.60;99.90;;;;;;5080577;28;20059;-51
2022/03/27 02:26:32;;;;;;;17.85;9.07;;;6.60;99.90;;;;;;5078550;28;20055;-55
2022/03/27 02:29:01;;;;;;;16.38;8.30;;;6.60;99.90;;;;;;5076946;28;20537;-54
2022/03/27 02:31:30;;;;;;;15.55;9.52;;;6.60;99.90;;;;;;5062757;28;20048;-55
2022/03/27 02:33:55;;;;;;;17.73;8.95;;;6.60;99.90;;;;;;5078300;28;20059;-54
2022/03/27 02:36:21;;;;;;;20.65;10.80;;;6.60;99.90;;;;;;5077423;28;20772;-54
2022/03/27 02:38:47;;;;;;;17.05;9.07;;;6.60;99.90;;;;;;5081413;28;21093;-55
2022/03/27 02:41:15;;;;;;;18.15;9.18;;;6.70;99.90;;;;;;5082131;28;20052;-55
2022/03/27 02:43:53;;;;;;;17.85;8.85;;;6.70;99.90;;;;;;5076712;28;20052;-54
2022/03/27 02:46:19;;;;;;;14.35;8.63;;;6.70;99.90;;;;;;5071149;28;20128;-44
2022/03/27 02:48:45;;;;;;;15.40;9.02;;;6.70;99.90;;;;;;5081405;28;20086;-53
2022/03/27 02:51:11;;;;;;;14.23;8.13;;;6.80;99.90;;;;;;5074668;28;20127;-55
2022/03/27 02:53:36;;;;;;;14.13;8.98;;;6.80;99.90;;;;;;5078299;28;20119;-54
2022/03/27 02:56:06;;;;;;;14.02;8.57;;;6.70;99.90;;;;;;5077407;28;20054;-51
2022/03/27 02:58:37;;;;;;;14.63;9.45;;;6.80;99.90;;;;;;5077425;28;20072;-54
2022/03/27 03:01:04;;;;;;;18.17;9.82;;;6.70;99.90;;;;;;5069240;28;20059;-51
2022/03/27 03:03:29;;;;;;;16.38;9.70;;;6.70;99.90;;;;;;5074004;28;20528;-53
2022/03/27 03:05:55;;;;;;;14.55;9.25;;;6.60;99.90;;;;;;5071190;28;20056;-53
2022/03/27 03:08:21;;;;;;;19.63;10.98;;;6.60;99.90;;;;;;5079171;28;20545;-54
2022/03/27 03:10:56;;;;;;;18.48;11.50;;;6.60;99.90;;;;;;5076454;28;20067;-53
2022/03/27 03:13:22;;;;;;;19.25;11.13;;;6.50;99.90;;;;;;5078237;28;20055;-53
2022/03/27 03:15:54;;;;;;;18.77;10.02;;;6.50;99.90;;;;;;5073591;28;20608;-53
2022/03/27 03:18:20;;;;;;;13.82;9.80;;;6.50;99.90;;;;;;5074450;28;20050;-51
2022/03/27 03:20:46;;;;;;;20.50;10.43;;;6.40;99.90;;;;;;5079228;28;20051;-52
2022/03/27 03:23:11;;;;;;;15.43;10.13;;;6.40;99.90;;;;;;5080605;28;20146;-54
2022/03/27 03:25:39;;;;;;;17.58;10.23;;;6.40;99.90;;;;;;5077141;28;20474;-53
2022/03/27 03:28:05;;;;;;;14.52;9.23;;;6.40;99.90;;;;;;5072132;28;20065;-54
2022/03/27 03:30:32;;;;;;;13.38;9.23;;;6.40;99.90;;;;;;5056931;28;20056;-53
2022/03/27 03:33:03;;;;;;;17.08;9.63;;;6.40;99.90;;;;;;5081491;28;20051;-54
2022/03/27 03:35:29;;;;;;;14.85;9.23;;;6.40;99.90;;;;;;5074230;28;20052;-51
2022/03/27 03:37:55;;;;;;;13.27;8.80;;;6.30;99.90;;;;;;5058936;28;20109;-50
2022/03/27 03:40:20;;;;;;;13.77;8.63;;;6.30;99.90;;;;;;5065756;28;20048;-54
2022/03/27 03:42:46;;;;;;;15.40;8.63;;;6.20;99.90;;;;;;5081565;28;20709;-53
2022/03/27 03:45:24;;;;;;;15.82;8.95;;;6.20;99.90;;;;;;5081563;28;20825;-53
2022/03/27 03:47:49;;;;;;;18.20;10.23;;;6.30;99.90;;;;;;5083820;28;20044;-54
2022/03/27 03:50:17;;;;;;;15.55;8.38;;;6.30;99.90;;;;;;5082849;28;20066;-53
2022/03/27 03:52:42;;;;;;;17.60;10.10;;;6.20;99.90;;;;;;5078402;28;20083;-53
2022/03/27 03:55:08;;;;;;;18.08;8.27;;;6.30;99.90;;;;;;5083310;28;20086;-51
2022/03/27 03:57:34;;;;;;;13.82;8.55;;;6.20;99.90;;;;;;5084299;28;20135;-53
2022/03/27 04:00:00;;;;;;;17.92;8.93;;;6.20;99.90;;;;;;5080588;28;20498;-53
2022/03/27 04:02:27;;;;;;;12.60;8.75;;;6.20;99.90;;;;;;5049180;28;20533;-53
2022/03/27 04:04:53;;;;;;;16.35;10.57;;;6.20;99.90;;;;;;5081097;28;20092;-54
2022/03/27 04:07:19;;;;;;;13.30;9.02;;;6.10;99.90;;;;;;5074509;28;20056;-54
2022/03/27 04:09:44;;;;;;;14.48;8.63;;;6.10;99.90;;;;;;5079783;28;20134;-50
2022/03/27 04:12:11;;;;;;;11.10;8.40;;;6.10;99.90;;;;;;5083657;28;20044;-53
2022/03/27 04:14:40;;;;;;;21.17;9.40;;;6.10;99.90;;;;;;5084513;28;20058;-54
2022/03/27 04:17:05;;;;;;;18.02;9.52;;;6.00;99.90;;;;;;5083401;28;20040;-55
2022/03/27 04:19:31;;;;;;;14.10;9.10;;;6.00;99.90;;;;;;5081386;28;20482;-53
2022/03/27 04:21:57;;;;;;;15.95;9.50;;;6.00;99.90;;;;;;5078590;28;20541;-54
2022/03/27 04:24:23;;;;;;;16.77;9.73;;;5.90;99.90;;;;;;5082131;28;20483;-54
2022/03/27 04:26:49;;;;;;;19.88;9.90;;;5.90;99.90;;;;;;5082957;28;20047;-53
2022/03/27 04:29:15;;;;;;;13.70;8.00;;;5.80;99.90;;;;;;5079384;28;20043;-51
2022/03/27 04:31:41;;;;;;;14.02;8.75;;;5.80;99.90;;;;;;5075975;28;20513;-53
2022/03/27 04:34:34;;;;;;;13.07;9.02;;;5.90;99.90;;;;;;5083123;28;20051;-54
2022/03/27 04:37:04;;;;;;;14.63;9.38;;;5.80;99.90;;;;;;5077794;28;20142;-51
2022/03/27 04:39:30;;;;;;;17.52;8.90;;;5.80;99.90;;;;;;5064088;28;20052;-53
2022/03/27 04:41:58;;;;;;;16.35;9.60;;;5.80;99.90;;;;;;5077558;28;20042;-53
2022/03/27 04:44:24;;;;;;;17.70;8.52;;;5.80;99.90;;;;;;5083880;28;20056;-53
2022/03/27 04:46:59;;;;;;;18.23;9.30;;;5.80;99.90;;;;;;5083843;28;20635;-54
2022/03/27 04:49:24;;;;;;;11.18;8.40;;;5.70;99.90;;;;;;5065571;28;20398;-53
2022/03/27 04:51:50;;;;;;;16.00;8.88;;;5.60;99.90;;;;;;5081911;28;20052;-51
2022/03/27 04:54:16;;;;;;;18.80;10.48;;;5.60;99.90;;;;;;5077132;28;20048;-54
2022/03/27 04:56:41;;;;;;;16.55;10.18;;;5.60;99.90;;;;;;5064743;28;20047;-53
2022/03/27 04:59:08;;;;;;;18.55;9.32;;;5.70;99.90;;;;;;5078518;28;20060;-54
2022/03/27 05:01:34;;;;;;;18.27;8.95;;;5.70;99.90;;;;;;5078139;28;20055;-51
2022/03/27 05:04:00;;;;;;;17.55;9.77;;;5.70;99.90;;;;;;5080320;28;20051;-54
2022/03/27 05:06:29;;;;;;;14.73;9.60;;;5.70;99.90;;;;;;5083226;28;20130;-54
2022/03/27 05:08:58;;;;;;;16.33;9.38;;;5.70;99.90;;;;;;5070925;28;20059;-53
2022/03/27 05:11:27;;;;;;;13.98;9.45;;;5.70;99.90;;;;;;5083060;28;20052;-50
2022/03/27 05:13:54;;;;;;;16.33;9.13;;;5.70;99.90;;;;;;5082450;28;20114;-53
2022/03/27 05:16:20;;;;;;;14.27;9.82;;;5.60;99.90;;;;;;5081982;28;20063;-54
2022/03/27 05:18:46;;;;;;;19.08;9.45;;;5.60;99.90;;;;;;5080585;28;20058;-54
2022/03/27 05:21:12;;;;;;;16.63;9.70;;;5.50;99.90;;;;;;5072445;28;20039;-52
2022/03/27 05:23:37;;;;;;;15.55;8.88;;;5.50;99.90;;;;;;5059758;28;20079;-53
2022/03/27 05:26:03;;;;;;;14.23;9.20;;;5.40;99.90;;;;;;5076282;28;20158;-50
2022/03/27 05:28:30;;;;;;;17.67;9.32;;;5.40;99.90;;;;;;5074614;28;20479;-54
2022/03/27 05:30:56;;;;;;;11.45;9.15;;;5.30;99.90;;;;;;5063098;28;20165;-54
2022/03/27 05:33:22;;;;;;;19.80;9.32;;;5.30;99.90;;;;;;5068565;28;20056;-51
2022/03/27 05:35:48;;;;;;;15.68;9.20;;;5.30;99.90;;;;;;5082042;28;20438;-54
2022/03/27 05:38:16;;;;;;;17.58;9.50;;;5.30;99.90;;;;;;5078997;28;20131;-54
2022/03/27 05:40:42;;;;;;;15.38;9.02;;;5.30;99.90;;;;;;5082844;28;20521;-55
2022/03/27 05:43:08;;;;;;;17.98;8.45;;;5.30;99.90;;;;;;5074330;28;20049;-50
2022/03/27 05:45:35;;;;;;;17.83;9.40;;;5.40;99.90;;;;;;5082513;28;20473;-52
2022/03/27 05:48:03;;;;;;;12.25;8.85;;;5.40;99.90;;;;;;5068660;28;20478;-54
2022/03/27 05:50:29;;;;;;;16.65;8.80;;;5.50;99.90;;;;;;5083885;28;20054;-54
2022/03/27 05:52:55;;;;;;;9.77;6.43;;;5.60;99.90;;;;;;5082711;28;20105;-53
2022/03/27 05:55:22;;;;;;;9.13;6.32;;;5.70;99.90;;;;;;5081618;28;20044;-54
2022/03/27 05:57:48;;;;;;;14.98;7.95;;;5.70;99.90;;;;;;5080353;28;20044;-53
2022/03/27 06:00:20;;;;;;;10.85;6.80;;;5.90;99.90;;;;;;5074031;28;20050;-53
2022/03/27 06:02:50;;;;;;;12.20;7.47;;;6.10;99.90;;;;;;5079066;28;20055;-54
2022/03/27 06:05:17;;;;;;;12.63;7.65;;;6.20;99.90;;;;;;5070816;28;20664;-54
2022/03/27 06:07:47;;;;;;;9.90;7.65;;;6.40;99.90;;;;;;5078051;28;20068;-54
2022/03/27 06:10:15;;;;;;;9.27;6.22;;;6.70;99.90;;;;;;5083546;28;20135;-54
2022/03/27 06:12:43;;;;;;;9.35;6.82;;;7.10;99.90;;;;;;5082489;28;20059;-54
2022/03/27 06:15:09;;;;;;;13.43;7.55;;;7.50;99.90;;;;;;5079595;28;20502;-54
2022/03/27 06:17:42;;;;;;;12.20;6.93;;;7.80;99.90;;;;;;5081841;28;20452;-54
2022/03/27 06:20:10;;;;;;;13.90;6.63;;;8.40;99.90;;;;;;5083723;28;20044;-54
2022/03/27 06:22:46;;;;;;;15.55;7.35;;;8.90;99.90;;;;;;5080270;28;20047;-56
2022/03/27 06:25:14;;;;;;;13.07;7.43;;;9.40;99.90;;;;;;5073871;28;20058;-54
2022/03/27 06:27:40;;;;;;;9.45;5.90;;;9.80;99.90;;;;;;5074071;28;20051;-54
2022/03/27 06:30:16;;;;;;;6.10;5.10;;;10.10;99.90;;;;;;5082691;28;20044;-54
2022/03/27 06:32:46;;;;;;;6.53;4.85;;;10.30;99.90;;;;;;5075461;28;20139;-54
2022/03/27 06:35:13;;;;;;;10.38;6.18;;;10.50;99.90;;;;;;5075842;28;20053;-54
2022/03/27 06:37:40;;;;;;;11.50;5.75;;;10.80;99.90;;;;;;5071420;28;20050;-52
2022/03/27 06:40:10;;;;;;;16.35;5.32;;;11.40;99.90;;;;;;5081022;28;20101;-55
2022/03/27 06:42:36;;;;;;;9.50;4.80;;;11.80;99.90;;;;;;5076517;28;20044;-55
2022/03/27 06:45:06;;;;;;;14.63;5.32;;;12.30;99.90;;;;;;5079604;28;20108;-54
2022/03/27 06:47:33;;;;;;;16.17;5.40;;;13.00;99.90;;;;;;5079623;28;20506;-54
2022/03/27 06:50:04;;;;;;;13.38;5.18;;;13.50;99.90;;;;;;5058539;28;20048;-53
2022/03/27 06:52:31;;;;;;;12.02;5.03;;;13.90;99.90;;;;;;5077640;28;20121;-55
2022/03/27 06:54:57;;;;;;;10.88;4.75;;;13.90;99.90;;;;;;5080326;28;20056;-54
2022/03/27 06:57:23;;;;;;;12.90;5.70;;;14.00;99.90;;;;;;5044242;28;20533;-48
2022/03/27 07:05:18;;;;;;;20.88;5.80;;;12.30;99.90;;;;;;5079520;28;20157;-55
2022/03/27 07:07:44;;;;;;;21.42;6.15;;;12.00;99.90;;;;;;5077671;28;20499;-55
2022/03/27 07:10:14;;;;;;;18.67;6.63;;;11.50;99.90;;;;;;5080312;28;20067;-56
2022/03/27 07:12:39;;;;;;;20.48;6.75;;;11.30;99.90;;;;;;5080171;28;20105;-54
2022/03/27 07:15:10;;;;;;;22.20;7.28;;;11.20;99.90;;;;;;5079811;28;20040;-53
2022/03/27 07:17:44;;;;;;;20.33;5.93;;;11.00;99.90;;;;;;5059511;28;20122;-54
2022/03/27 07:20:11;;;;;;;22.90;6.15;;;10.70;99.90;;;;;;5076102;28;20050;-54
2022/03/27 07:22:37;;;;;;;20.55;5.97;;;10.80;99.90;;;;;;5079663;28;20159;-55
2022/03/27 07:25:03;;;;;;;19.00;6.50;;;10.80;99.90;;;;;;5058390;28;20048;-53
2022/03/27 07:27:31;;;;;;;29.25;8.10;;;10.70;99.90;;;;;;5075531;28;20044;-55
2022/03/27 07:29:56;;;;;;;25.38;6.93;;;10.60;99.90;;;;;;5076776;28;20071;-55
2022/03/27 07:32:22;;;;;;;27.90;6.00;;;10.70;99.90;;;;;;5077845;28;20883;-55
2022/03/27 07:34:48;;;;;;;29.23;7.38;;;10.80;99.90;;;;;;5081741;28;20048;-53
2022/03/27 07:37:13;;;;;;;27.73;7.40;;;10.80;99.90;;;;;;5066179;28;20051;-57
2022/03/27 07:39:39;;;;;;;31.77;8.65;;;11.10;99.90;;;;;;5061265;28;20050;-55
2022/03/27 07:42:05;;;;;;;31.45;9.35;;;10.90;99.90;;;;;;5075611;28;20443;-53
2022/03/27 07:44:31;;;;;;;29.67;8.73;;;10.80;99.90;;;;;;5077321;28;20044;-55
2022/03/27 07:46:59;;;;;;;34.25;8.55;;;10.90;99.90;;;;;;5070235;28;20392;-55
2022/03/27 07:49:26;;;;;;;31.15;8.18;;;10.90;99.90;;;;;;5078561;28;20274;-55
2022/03/27 07:51:55;;;;;;;27.70;8.00;;;10.90;99.90;;;;;;5050796;28;20406;-55
2022/03/27 07:54:22;;;;;;;31.75;8.77;;;10.80;99.90;;;;;;5077938;28;20113;-55
2022/03/27 07:56:48;;;;;;;34.80;8.55;;;10.50;99.90;;;;;;5077712;28;20061;-52
2022/03/27 07:59:13;;;;;;;32.80;8.20;;;10.40;99.90;;;;;;5074570;28;20051;-55
2022/03/27 08:01:39;;;;;;;28.92;7.70;;;10.50;99.90;;;;;;5054937;28;20064;-55
2022/03/27 08:04:05;;;;;;;31.48;8.88;;;10.70;99.90;;;;;;5072466;28;20076;-55
2022/03/27 08:06:36;;;;;;;30.60;8.23;;;10.60;99.90;;;;;;5058567;28;20063;-55
2022/03/27 08:09:06;;;;;;;35.63;8.73;;;10.60;99.90;;;;;;5071067;28;20044;-55
2022/03/27 08:11:33;;;;;;;31.20;9.35;;;10.70;99.90;;;;;;5062485;28;20486;-55
2022/03/27 08:13:59;;;;;;;36.47;8.27;;;10.70;99.90;;;;;;5079584;28;20051;-56
2022/03/27 08:16:26;;;;;;;30.77;7.75;;;10.70;99.90;;;;;;5081531;28;20063;-51
2022/03/27 08:18:52;;;;;;;35.45;8.43;;;10.70;99.90;;;;;;5079617;28;20564;-54
2022/03/27 08:21:18;;;;;;;30.08;8.23;;;10.80;99.90;;;;;;5072083;28;20121;-55
2022/03/27 08:23:43;;;;;;;34.05;7.95;;;11.00;99.90;;;;;;5058434;28;20048;-55
2022/03/27 08:28:53;;;;;;;27.20;6.72;;;11.30;99.90;;;;;;5082140;28;20059;-57
2022/03/27 08:31:19;;;;;;;30.50;9.13;;;11.40;99.90;;;;;;5063027;28;20059;-56
2022/03/27 08:33:46;;;;;;;28.95;7.90;;;11.40;99.90;;;;;;5068012;28;20388;-55
2022/03/27 08:36:12;;;;;;;29.48;7.50;;;11.50;99.90;;;;;;5078931;28;20137;-55
2022/03/27 08:38:38;;;;;;;29.75;7.97;;;11.50;99.90;;;;;;5081579;28;20044;-51
2022/03/27 08:41:05;;;;;;;27.45;6.85;;;11.50;99.90;;;;;;5061975;28;20071;-55
2022/03/27 08:43:33;;;;;;;30.48;8.18;;;11.70;99.90;;;;;;5042440;28;20067;-56
2022/03/27 08:45:59;;;;;;;27.48;8.23;;;11.50;99.90;;;;;;5061946;28;20052;-56
2022/03/27 08:48:30;;;;;;;29.30;6.90;;;11.50;99.90;;;;;;5046775;28;20056;-56
2022/03/27 08:51:04;;;;;;;28.92;8.50;;;11.60;99.90;;;;;;5051801;28;20147;-56
2022/03/27 08:53:41;;;;;;;29.48;8.27;;;11.50;99.90;;;;;;5059343;28;20091;-57
2022/03/27 08:56:07;;;;;;;29.08;7.35;;;11.60;99.90;;;;;;5059841;28;20044;-55
2022/03/27 08:58:38;;;;;;;28.42;7.47;;;11.80;99.90;;;;;;5056326;28;20510;-57
2022/03/27 09:01:05;;;;;;;30.38;7.22;;;12.00;99.90;;;;;;5042458;28;20495;-57
2022/03/27 09:03:32;;;;;;;33.75;9.95;;;12.10;99.90;;;;;;5060150;28;20530;-53
2022/03/27 09:05:59;;;;;;;29.70;7.15;;;12.00;99.90;;;;;;5062003;28;20111;-52
2022/03/27 09:08:25;;;;;;;31.60;8.77;;;12.00;99.90;;;;;;5038207;28;20060;-50
2022/03/27 09:10:51;;;;;;;28.70;8.82;;;12.10;99.90;;;;;;5056356;28;20117;-50
2022/03/27 09:13:19;;;;;;;32.85;9.18;;;12.10;99.90;;;;;;5059277;28;20400;-57
2022/03/27 09:15:55;;;;;;;31.10;8.43;;;12.20;99.90;;;;;;5053820;28;20056;-57
2022/03/27 09:18:21;;;;;;;32.33;7.80;;;12.20;99.90;;;;;;5048160;28;20092;-56
2022/03/27 09:20:53;;;;;;;29.15;7.47;;;12.30;99.90;;;;;;5055183;28;20658;-57
2022/03/27 09:23:22;;;;;;;25.92;7.55;;;12.50;99.90;;;;;;5057011;28;20491;-57
2022/03/27 09:26:01;;;;;;;38.88;8.52;;;12.50;99.90;;;;;;5045093;28;20052;-57
2022/03/27 09:28:30;;;;;;;30.08;7.45;;;12.50;99.90;;;;;;5058853;28;20462;-56
2022/03/27 09:31:21;;;;;;;25.90;7.72;;;12.50;99.90;;;;;;5055424;28;20083;-56
2022/03/27 09:34:00;;;;;;;25.33;6.93;;;12.50;99.90;;;;;;5042941;28;20497;-57
2022/03/27 09:36:42;;;;;;;28.75;7.28;;;12.70;99.90;;;;;;5059212;28;20071;-49
2022/03/27 09:39:15;;;;;;;28.33;8.32;;;12.70;99.90;;;;;;5038423;28;20597;-52
2022/03/27 09:41:42;;;;;;;;;;;12.80;99.90;;;;;;5057516;28;20427;-57
2022/03/27 09:44:19;;;;;;;27.58;7.00;;;12.80;99.90;;;;;;5050015;28;19928;-53
2022/03/27 09:46:53;;;;;;;27.52;7.43;;;12.90;99.90;;;;;;5054808;28;20052;-57
2022/03/27 09:49:48;;;;;;;28.65;7.22;;;13.20;99.90;;;;;;5060189;28;20438;-55
2022/03/27 09:52:19;;;;;;;25.77;8.10;;;13.20;99.90;;;;;;5052612;28;20057;-56
2022/03/27 09:54:51;;;;;;;30.83;8.25;;;13.30;99.90;;;;;;5059599;28;20629;-53
2022/03/27 09:57:25;;;;;;;24.35;7.38;;;13.00;99.90;;;;;;5046471;28;20505;-52
2022/03/27 09:59:53;;;;;;;26.13;6.65;;;13.00;99.90;;;;;;5059865;28;20098;-57
2022/03/27 10:02:29;;;;;;;28.25;7.03;;;13.20;99.90;;;;;;5049252;28;20391;-56
2022/03/27 10:04:55;;;;;;;28.20;7.70;;;13.20;99.90;;;;;;5029717;28;20592;-50
2022/03/27 10:07:25;;;;;;;24.45;6.95;;;13.40;99.90;;;;;;5060240;28;20470;-57
2022/03/27 10:09:55;;;;;;;19.05;5.63;;;13.60;99.90;;;;;;5041308;28;20537;-57
2022/03/27 10:12:33;;;;;;;22.83;6.35;;;13.60;99.90;;;;;;5053858;28;20057;-56
2022/03/27 10:15:03;;;;;;;20.58;5.93;;;13.50;99.90;;;;;;5029602;28;20057;-57
2022/03/27 10:17:36;;;;;;;19.35;6.13;;;13.50;99.90;;;;;;5057438;28;20056;-56
2022/03/27 10:20:15;;;;;;;22.08;5.60;;;13.40;99.90;;;;;;5059542;28;20136;-58
2022/03/27 10:22:47;;;;;;;22.52;6.18;;;13.50;99.90;;;;;;5058547;28;20433;-56
2022/03/27 10:25:18;;;;;;;19.83;5.25;;;13.70;99.90;;;;;;5037080;28;20049;-56
2022/03/27 10:27:47;;;;;;;25.35;7.68;;;13.80;99.90;;;;;;5054328;28;20057;-57
2022/03/27 10:30:16;;;;;;;24.42;6.45;;;13.90;99.90;;;;;;5041517;28;20096;-57
2022/03/27 10:32:43;;;;;;;16.95;6.10;;;13.90;99.90;;;;;;5052583;28;20515;-57
2022/03/27 10:35:18;;;;;;;23.10;6.18;;;14.00;99.90;;;;;;5041243;28;20045;-52
2022/03/27 10:38:10;;;;;;;19.42;6.38;;;14.10;99.90;;;;;;5047098;28;20048;-56
2022/03/27 10:40:49;;;;;;;20.85;6.43;;;14.20;99.90;;;;;;5047514;28;20529;-57
2022/03/27 10:43:42;;;;;;;20.45;5.60;;;14.20;99.90;;;;;;5059421;28;20173;-54
2022/03/27 10:46:22;;;;;;;19.27;5.18;;;14.40;99.90;;;;;;5056388;28;20167;-56
2022/03/27 10:48:49;;;;;;;17.40;5.30;;;14.40;99.90;;;;;;5056060;28;20052;-57
2022/03/27 10:51:24;;;;;;;18.35;4.95;;;14.40;99.90;;;;;;5056400;28;20048;-55
2022/03/27 10:54:06;;;;;;;24.30;5.82;;;14.60;99.40;;;;;;5057115;28;20097;-57
2022/03/27 10:56:34;;;;;;;23.27;6.03;;;14.60;99.90;;;;;;5047662;28;20462;-57
2022/03/27 10:59:19;;;;;;;20.02;6.43;;;14.60;98.80;;;;;;5052080;28;20124;-57
2022/03/27 11:01:48;;;;;;;22.13;7.45;;;14.70;97.20;;;;;;5057660;28;20411;-55
2022/03/27 11:04:23;;;;;;;20.48;5.32;;;14.60;98.70;;;;;;5059382;28;20623;-57
2022/03/27 11:06:51;;;;;;;18.85;6.18;;;14.60;98.40;;;;;;5054690;28;20646;-56
2022/03/27 11:09:34;;;;;;;22.45;7.00;;;14.70;98.40;;;;;;5052482;28;20052;-56
2022/03/27 11:12:26;;;;;;;22.30;5.45;;;14.80;98.40;;;;;;5055664;28;20438;-56
2022/03/27 11:15:05;;;;;;;16.70;5.22;;;14.80;98.00;;;;;;5053489;28;20051;-57
2022/03/27 11:18:01;;;;;;;17.35;5.30;;;14.70;97.40;;;;;;5050099;28;20059;-57
2022/03/27 11:20:29;;;;;;;16.55;5.28;;;14.90;98.10;;;;;;4944941;28;20051;-56
2022/03/27 11:22:57;;;;;;;19.58;5.25;;;15.00;97.30;;;;;;4943729;28;20611;-54
2022/03/27 11:25:38;;;;;;;13.77;4.18;;;15.00;96.90;;;;;;4944052;28;20552;-56
2022/03/27 11:28:08;;;;;;;17.88;5.47;;;15.00;94.00;;;;;;4932725;28;20063;-57
2022/03/27 11:30:59;;;;;;;16.45;4.47;;;14.90;94.70;;;;;;4949442;28;20102;-57
2022/03/27 11:33:29;;;;;;;16.27;4.75;;;14.90;95.40;;;;;;4948306;28;20482;-58
2022/03/27 11:36:00;;;;;;;16.60;5.35;;;15.00;94.70;;;;;;4944518;28;20043;-55
2022/03/27 11:38:29;;;;;;;18.95;5.22;;;14.90;93.70;;;;;;4952096;28;20059;-48
2022/03/27 11:40:55;;;;;;;21.20;5.70;;;14.90;93.40;;;;;;4949801;28;20069;-56
2022/03/27 11:43:31;;;;;;;20.73;5.28;;;14.90;93.70;;;;;;4944861;28;20055;-52
2022/03/27 11:45:58;;;;;;;15.77;4.22;;;14.80;93.20;;;;;;4949802;28;20051;-56
2022/03/27 11:48:29;;;;;;;15.10;4.95;;;14.80;93.80;;;;;;4949593;28;20047;-55
2022/03/27 11:50:55;;;;;;;14.32;4.35;;;14.80;92.80;;;;;;4937997;28;20070;-56
2022/03/27 11:53:32;;;;;;;20.83;5.15;;;14.90;93.80;;;;;;4951873;28;20659;-54
2022/03/27 11:56:06;;;;;;;19.38;5.18;;;14.90;94.60;;;;;;4958622;28;20233;-45
2022/03/27 11:58:33;;;;;;;16.58;4.65;;;14.90;93.80;;;;;;5056332;28;20049;-56
2022/03/27 12:01:10;;;;;;;12.00;3.33;;;15.10;94.00;;;;;;5051226;28;20052;-54
2022/03/27 12:03:37;;;;;;;17.75;5.03;;;15.10;93.40;;;;;;5059882;28;20048;-56
2022/03/27 12:06:10;;;;;;;16.17;5.30;;;14.90;93.10;;;;;;5059542;28;20265;-56
2022/03/27 12:08:42;;;;;;;17.25;4.57;;;14.90;93.00;;;;;;5051145;28;20056;-57
2022/03/27 12:11:08;;;;;;;17.38;4.60;;;15.00;93.50;;;;;;5015549;28;20041;-54
2022/03/27 12:13:37;;;;;;;12.43;4.07;;;15.10;92.00;;;;;;5048554;28;20145;-56
2022/03/27 12:16:03;;;;;;;16.90;4.75;;;15.20;92.70;;;;;;5051006;28;20477;-52
2022/03/27 12:18:40;;;;;;;14.90;4.10;;;15.20;92.30;;;;;;5052657;28;20052;-57
2022/03/27 12:21:09;;;;;;;14.00;4.35;;;15.30;92.30;;;;;;5052717;28;20491;-47
2022/03/27 12:23:46;;;;;;;19.42;5.40;;;15.30;93.40;;;;;;5051750;28;20123;-48
2022/03/27 12:32:13;;;;;;;15.55;4.93;;;15.00;92.00;;;;;;5052029;28;20590;-48
2022/03/27 12:34:47;;;;;;;20.65;5.32;;;15.10;92.40;;;;;;5050013;28;20492;-47
2022/03/27 12:37:15;;;;;;;15.77;4.80;;;15.20;93.10;;;;;;5052254;28;20416;-47
2022/03/27 12:40:05;;;;;;;15.68;4.38;;;15.20;92.10;;;;;;5049940;28;20136;-46
2022/03/27 12:42:47;;;;;;;14.02;5.10;;;15.20;92.90;;;;;;5051829;28;20055;-47
2022/03/27 12:45:36;;;;;;;13.52;4.25;;;15.20;91.60;;;;;;5051144;28;20522;-46
2022/03/27 12:48:14;;;;;;;15.85;3.97;;;15.30;92.00;;;;;;5029316;28;20067;-45
2022/03/27 12:50:42;;;;;;;17.58;4.22;;;15.40;92.00;;;;;;5051344;28;20067;-44
2022/03/27 12:53:18;;;;;;;14.18;4.43;;;15.40;92.50;;;;;;5053885;28;20154;-45
2022/03/27 12:55:57;;;;;;;14.50;4.03;;;15.30;92.50;;;;;;5053391;28;20130;-47
2022/03/27 12:58:37;;;;;;;13.40;3.63;;;15.30;93.10;;;;;;5052563;28;20060;-48
2022/03/27 13:01:05;;;;;;;14.65;4.15;;;15.40;92.10;;;;;;5051495;28;20102;-46
2022/03/27 13:03:32;;;;;;;13.82;3.67;;;15.30;92.00;;;;;;5057480;28;20052;-47
2022/03/27 13:05:57;;;;;;;14.32;4.57;;;15.40;92.50;;;;;;5056381;28;20882;-48
2022/03/27 13:08:42;;;;;;;13.38;3.92;;;15.40;93.50;;;;;;5053318;28;20040;-50